sensor_id;sensor_type;location;lat;lon;timestamp;pressure;altitude;pressure_sealevel;temperature;humidity
8697;BME280;4385;48.848;8.924;2023-11-18T00:00:22;98201.16;;;18.34;100.00
8697;BME280;4385;48.848;8.924;2023-11-18T00:02:47;98202.88;;;18.33;100.00
8697;BME280;4385;48.848;8.924;2023-11-18T00:05:12;98202.00;;;18.32;100.00
8697;BME280;4385;48.848;8.924;2023-11-18T00:07:39;98207.13;;;18.32;100.00
8697;BME280;4385;48.848;8.924;2023-11-18T00:10:05;98198.63;;;18.30;100.00
8697;BME280;4385;48.848;8.924;2023-11-18T00:12:31;98196.09;;;18.29;100.00
8697;BME280;4385;48.848;8.924;2023-11-18T00:15:00;98205.47;;;18.28;100.00
8697;BME280;4385;48.848;8.924;2023-11-18T00:17:25;98203.75;;;18.27;100.00
8697;BME280;4385;48.848;8.924;2023-11-18T00:19:50;98197.84;;;18.27;100.00
8697;BME280;4385;48.848;8.924;2023-11-18T00:22:15;98199.53;;;18.25;100.00
8697;BME280;4385;48.848;8.924;2023-11-18T00:24:41;98199.56;;;18.23;100.00
8697;BME280;4385;48.848;8.924;2023-11-18T00:27:06;98196.16;;;18.23;100.00
8697;BME280;4385;48.848;8.924;2023-11-18T00:29:33;98197.88;;;18.22;100.00
8697;BME280;4385;48.848;8.924;2023-11-18T00:31:58;98203.81;;;18.21;100.00
8697;BME280;4385;48.848;8.924;2023-11-18T00:34:24;98203.00;;;18.19;100.00
8697;BME280;4385;48.848;8.924;2023-11-18T00:36:49;98208.94;;;18.18;100.00
8697;BME280;4385;48.848;8.924;2023-11-18T00:39:14;98200.50;;;18.16;100.00
8697;BME280;4385;48.848;8.924;2023-11-18T00:41:40;98193.69;;;18.15;100.00
8697;BME280;4385;48.848;8.924;2023-11-18T00:44:05;98196.25;;;18.13;100.00
8697;BME280;4385;48.848;8.924;2023-11-18T00:46:32;98185.22;;;18.13;100.00
8697;BME280;4385;48.848;8.924;2023-11-18T00:49:01;98191.13;;;18.13;100.00
8697;BME280;4385;48.848;8.924;2023-11-18T00:51:27;98197.97;;;18.13;100.00
8697;BME280;4385;48.848;8.924;2023-11-18T00:53:53;98192.84;;;18.14;100.00
8697;BME280;4385;48.848;8.924;2023-11-18T00:56:20;98199.66;;;18.14;100.00
8697;BME280;4385;48.848;8.924;2023-11-18T00:58:46;98197.94;;;18.14;100.00
8697;BME280;4385;48.848;8.924;2023-11-18T01:01:12;98197.06;;;18.17;100.00
8697;BME280;4385;48.848;8.924;2023-11-18T01:03:37;98194.50;;;18.18;100.00
8697;BME280;4385;48.848;8.924;2023-11-18T01:06:03;98190.25;;;18.21;100.00
8697;BME280;4385;48.848;8.924;2023-11-18T01:08:30;98198.72;;;18.21;100.00
8697;BME280;4385;48.848;8.924;2023-11-18T01:10:55;98193.63;;;18.21;100.00
8697;BME280;4385;48.848;8.924;2023-11-18T01:13:20;98195.31;;;18.22;100.00
8697;BME280;4385;48.848;8.924;2023-11-18T01:15:45;98200.44;;;18.22;100.00
8697;BME280;4385;48.848;8.924;2023-11-18T01:18:11;98202.97;;;18.22;100.00
8697;BME280;4385;48.848;8.924;2023-11-18T01:20:36;98203.81;;;18.21;100.00
8697;BME280;4385;48.848;8.924;2023-11-18T01:23:02;98214.03;;;18.21;100.00
8697;BME280;4385;48.848;8.924;2023-11-18T01:25:28;98220.84;;;18.22;100.00
8697;BME280;4385;48.848;8.924;2023-11-18T01:27:54;98225.94;;;18.22;100.00
8697;BME280;4385;48.848;8.924;2023-11-18T01:30:19;98225.09;;;18.22;100.00
8697;BME280;4385;48.848;8.924;2023-11-18T01:32:45;98231.88;;;18.21;100.00
8697;BME280;4385;48.848;8.924;2023-11-18T01:35:11;98232.75;;;18.20;100.00
8697;BME280;4385;48.848;8.924;2023-11-18T01:37:37;98221.69;;;18.19;100.00
8697;BME280;4385;48.848;8.924;2023-11-18T01:40:04;98225.97;;;18.19;100.00
8697;BME280;4385;48.848;8.924;2023-11-18T01:42:33;98223.41;;;18.19;100.00
8697;BME280;4385;48.848;8.924;2023-11-18T01:44:58;98226.81;;;18.18;100.00
8697;BME280;4385;48.848;8.924;2023-11-18T01:47:26;98228.53;;;18.17;100.00
8697;BME280;4385;48.848;8.924;2023-11-18T01:49:52;98230.22;;;18.18;100.00
8697;BME280;4385;48.848;8.924;2023-11-18T01:52:18;98222.56;;;18.18;100.00
8697;BME280;4385;48.848;8.924;2023-11-18T01:54:44;98220.88;;;18.19;100.00
8697;BME280;4385;48.848;8.924;2023-11-18T01:57:10;98220.88;;;18.19;100.00
8697;BME280;4385;48.848;8.924;2023-11-18T01:59:36;98223.41;;;18.21;100.00
8697;BME280;4385;48.848;8.924;2023-11-18T02:02:03;98222.53;;;18.20;100.00
8697;BME280;4385;48.848;8.924;2023-11-18T02:04:29;98219.13;;;18.21;100.00
8697;BME280;4385;48.848;8.924;2023-11-18T02:06:56;98220.84;;;18.22;100.00
8697;BME280;4385;48.848;8.924;2023-11-18T02:09:22;98216.56;;;18.21;100.00
8697;BME280;4385;48.848;8.924;2023-11-18T02:14:31;98214.91;;;18.18;100.00
8697;BME280;4385;48.848;8.924;2023-11-18T02:16:59;98220.03;;;18.17;100.00
8697;BME280;4385;48.848;8.924;2023-11-18T02:19:28;98215.78;;;18.16;100.00
8697;BME280;4385;48.848;8.924;2023-11-18T02:21:55;98216.63;;;18.15;100.00
8697;BME280;4385;48.848;8.924;2023-11-18T02:24:29;98220.91;;;18.14;100.00
8697;BME280;4385;48.848;8.924;2023-11-18T02:27:03;98217.50;;;18.14;100.00
8697;BME280;4385;48.848;8.924;2023-11-18T02:29:34;98215.81;;;18.13;100.00
8697;BME280;4385;48.848;8.924;2023-11-18T02:32:25;98217.50;;;18.12;100.00
8697;BME280;4385;48.848;8.924;2023-11-18T02:35:01;98224.31;;;18.12;100.00
8697;BME280;4385;48.848;8.924;2023-11-18T02:37:29;98223.50;;;18.11;100.00
8697;BME280;4385;48.848;8.924;2023-11-18T02:40:05;98223.47;;;18.10;100.00
8697;BME280;4385;48.848;8.924;2023-11-18T02:42:35;98226.84;;;18.08;100.00
8697;BME280;4385;48.848;8.924;2023-11-18T02:45:02;98235.38;;;18.09;100.00
8697;BME280;4385;48.848;8.924;2023-11-18T02:47:27;98238.78;;;18.08;100.00
8697;BME280;4385;48.848;8.924;2023-11-18T02:49:56;98229.41;;;18.08;100.00
8697;BME280;4385;48.848;8.924;2023-11-18T02:52:21;98226.03;;;18.06;100.00
8697;BME280;4385;48.848;8.924;2023-11-18T02:54:48;98220.06;;;18.07;100.00
8697;BME280;4385;48.848;8.924;2023-11-18T02:57:13;98226.03;;;18.06;100.00
8697;BME280;4385;48.848;8.924;2023-11-18T02:59:38;98226.03;;;18.06;100.00
8697;BME280;4385;48.848;8.924;2023-11-18T03:02:04;98225.19;;;18.06;100.00
8697;BME280;4385;48.848;8.924;2023-11-18T03:04:31;98225.19;;;18.06;100.00
8697;BME280;4385;48.848;8.924;2023-11-18T03:06:56;98228.59;;;18.06;100.00
8697;BME280;4385;48.848;8.924;2023-11-18T03:09:21;98223.50;;;18.06;100.00
8697;BME280;4385;48.848;8.924;2023-11-18T03:11:47;98225.19;;;18.07;100.00
8697;BME280;4385;48.848;8.924;2023-11-18T03:14:12;98225.19;;;18.06;100.00
8697;BME280;4385;48.848;8.924;2023-11-18T03:16:37;98225.19;;;18.06;100.00
8697;BME280;4385;48.848;8.924;2023-11-18T03:19:03;98210.75;;;18.06;100.00
8697;BME280;4385;48.848;8.924;2023-11-18T03:21:30;98211.59;;;18.05;100.00
8697;BME280;4385;48.848;8.924;2023-11-18T03:23:55;98219.25;;;18.02;100.00
8697;BME280;4385;48.848;8.924;2023-11-18T03:26:20;98217.59;;;18.00;100.00
8697;BME280;4385;48.848;8.924;2023-11-18T03:28:46;98215.94;;;17.97;100.00
8697;BME280;4385;48.848;8.924;2023-11-18T03:31:12;98209.97;;;17.95;100.00
8697;BME280;4385;48.848;8.924;2023-11-18T03:33:37;98215.09;;;17.93;100.00
8697;BME280;4385;48.848;8.924;2023-11-18T03:36:03;98225.31;;;17.92;100.00
8697;BME280;4385;48.848;8.924;2023-11-18T03:38:29;98232.09;;;17.91;100.00
8697;BME280;4385;48.848;8.924;2023-11-18T03:40:54;98232.09;;;17.91;100.00
8697;BME280;4385;48.848;8.924;2023-11-18T03:43:20;98230.41;;;17.92;100.00
8697;BME280;4385;48.848;8.924;2023-11-18T03:45:46;98235.50;;;17.92;100.00
8697;BME280;4385;48.848;8.924;2023-11-18T03:48:11;98232.97;;;17.92;100.00
8697;BME280;4385;48.848;8.924;2023-11-18T03:50:40;98227.84;;;17.92;100.00
8697;BME280;4385;48.848;8.924;2023-11-18T03:53:05;98225.28;;;17.93;100.00
8697;BME280;4385;48.848;8.924;2023-11-18T03:55:31;98217.66;;;17.93;100.00
8697;BME280;4385;48.848;8.924;2023-11-18T03:57:56;98223.59;;;17.94;100.00
8697;BME280;4385;48.848;8.924;2023-11-18T04:00:22;98221.06;;;17.94;100.00
8697;BME280;4385;48.848;8.924;2023-11-18T04:02:54;98219.31;;;17.96;100.00
8697;BME280;4385;48.848;8.924;2023-11-18T04:05:20;98213.38;;;17.95;100.00
8697;BME280;4385;48.848;8.924;2023-11-18T04:07:45;98219.28;;;17.99;100.00
8697;BME280;4385;48.848;8.924;2023-11-18T04:10:10;98226.94;;;18.01;100.00
8697;BME280;4385;48.848;8.924;2023-11-18T04:12:39;98222.69;;;18.01;100.00
8697;BME280;4385;48.848;8.924;2023-11-18T04:15:05;98227.78;;;18.01;100.00
8697;BME280;4385;48.848;8.924;2023-11-18T04:17:31;98232.00;;;18.02;100.00
8697;BME280;4385;48.848;8.924;2023-11-18T04:19:56;98230.34;;;18.01;100.00
8697;BME280;4385;48.848;8.924;2023-11-18T04:22:22;98239.69;;;17.99;100.00
8697;BME280;4385;48.848;8.924;2023-11-18T04:24:47;98236.31;;;18.00;100.00
8697;BME280;4385;48.848;8.924;2023-11-18T04:27:13;98230.34;;;18.00;100.00
8697;BME280;4385;48.848;8.924;2023-11-18T04:29:38;98226.91;;;18.02;100.00
8697;BME280;4385;48.848;8.924;2023-11-18T04:32:06;98215.91;;;18.00;100.00
8697;BME280;4385;48.848;8.924;2023-11-18T04:34:35;98217.59;;;17.98;100.00
8697;BME280;4385;48.848;8.924;2023-11-18T04:37:01;98220.16;;;17.98;100.00
8697;BME280;4385;48.848;8.924;2023-11-18T04:39:26;98214.19;;;17.99;100.00
8697;BME280;4385;48.848;8.924;2023-11-18T04:41:53;98209.09;;;17.98;100.00
8697;BME280;4385;48.848;8.924;2023-11-18T04:44:18;98203.19;;;17.97;100.00
8697;BME280;4385;48.848;8.924;2023-11-18T04:46:43;98214.19;;;17.98;100.00
8697;BME280;4385;48.848;8.924;2023-11-18T04:49:10;98212.50;;;17.98;100.00
8697;BME280;4385;48.848;8.924;2023-11-18T04:51:35;98215.94;;;17.97;100.00
8697;BME280;4385;48.848;8.924;2023-11-18T04:54:00;98215.94;;;17.97;100.00
8697;BME280;4385;48.848;8.924;2023-11-18T04:56:28;98218.47;;;17.99;100.00
8697;BME280;4385;48.848;8.924;2023-11-18T04:58:53;98212.50;;;17.98;100.00
8697;BME280;4385;48.848;8.924;2023-11-18T05:01:19;98210.81;;;17.97;100.00
8697;BME280;4385;48.848;8.924;2023-11-18T05:03:44;98215.06;;;17.98;100.00
8697;BME280;4385;48.848;8.924;2023-11-18T05:06:09;98210.81;;;17.97;100.00
8697;BME280;4385;48.848;8.924;2023-11-18T05:08:35;98200.63;;;17.97;100.00
8697;BME280;4385;48.848;8.924;2023-11-18T05:11:01;98198.91;;;17.96;100.00
8697;BME280;4385;48.848;8.924;2023-11-18T05:13:26;98209.13;;;17.96;100.00
8697;BME280;4385;48.848;8.924;2023-11-18T05:15:52;98204.00;;;17.96;100.00
8697;BME280;4385;48.848;8.924;2023-11-18T05:18:19;98197.22;;;17.95;100.00
8697;BME280;4385;48.848;8.924;2023-11-18T05:20:44;98206.56;;;17.94;100.00
8697;BME280;4385;48.848;8.924;2023-11-18T05:23:10;98198.09;;;17.94;100.00
8697;BME280;4385;48.848;8.924;2023-11-18T05:25:44;98204.03;;;17.93;100.00
8697;BME280;4385;48.848;8.924;2023-11-18T05:28:09;98205.78;;;17.91;100.00
8697;BME280;4385;48.848;8.924;2023-11-18T05:30:36;98210.91;;;17.89;100.00
8697;BME280;4385;48.848;8.924;2023-11-18T05:33:03;98207.47;;;17.89;100.00
8697;BME280;4385;48.848;8.924;2023-11-18T05:35:30;98206.63;;;17.88;100.00
8697;BME280;4385;48.848;8.924;2023-11-18T05:37:56;98215.16;;;17.86;100.00
8697;BME280;4385;48.848;8.924;2023-11-18T05:40:22;98214.31;;;17.85;100.00
8697;BME280;4385;48.848;8.924;2023-11-18T05:42:48;98210.94;;;17.85;100.00
8697;BME280;4385;48.848;8.924;2023-11-18T05:45:17;98212.63;;;17.82;100.00
8697;BME280;4385;48.848;8.924;2023-11-18T05:47:57;98214.31;;;17.82;100.00
8697;BME280;4385;48.848;8.924;2023-11-18T05:50:23;98209.25;;;17.80;100.00
8697;BME280;4385;48.848;8.924;2023-11-18T05:52:52;98210.09;;;17.79;100.00
8697;BME280;4385;48.848;8.924;2023-11-18T05:55:17;98215.22;;;17.78;100.00
8697;BME280;4385;48.848;8.924;2023-11-18T05:57:42;98205.91;;;17.77;100.00
8697;BME280;4385;48.848;8.924;2023-11-18T06:00:13;98209.28;;;17.76;100.00
8697;BME280;4385;48.848;8.924;2023-11-18T06:02:41;98188.91;;;17.74;100.00
8697;BME280;4385;48.848;8.924;2023-11-18T06:05:07;98196.53;;;17.74;100.00
8697;BME280;4385;48.848;8.924;2023-11-18T06:07:33;98210.16;;;17.75;100.00
8697;BME280;4385;48.848;8.924;2023-11-18T06:09:59;98206.75;;;17.74;100.00
8697;BME280;4385;48.848;8.924;2023-11-18T06:12:25;98205.03;;;17.75;100.00
8697;BME280;4385;48.848;8.924;2023-11-18T06:14:52;98193.16;;;17.75;100.00
8697;BME280;4385;48.848;8.924;2023-11-18T06:17:17;98187.19;;;17.76;100.00
8697;BME280;4385;48.848;8.924;2023-11-18T06:19:44;98190.59;;;17.78;100.00
8697;BME280;4385;48.848;8.924;2023-11-18T06:22:09;98195.66;;;17.81;100.00
8697;BME280;4385;48.848;8.924;2023-11-18T06:24:35;98193.91;;;17.83;100.00
8697;BME280;4385;48.848;8.924;2023-11-18T06:27:01;98208.34;;;17.88;100.00
8697;BME280;4385;48.848;8.924;2023-11-18T06:29:26;98215.09;;;17.92;100.00
8697;BME280;4385;48.848;8.924;2023-11-18T06:31:51;98219.34;;;17.93;100.00
8697;BME280;4385;48.848;8.924;2023-11-18T06:34:17;98219.31;;;17.94;100.00
8697;BME280;4385;48.848;8.924;2023-11-18T06:36:43;98214.19;;;17.98;100.00
8697;BME280;4385;48.848;8.924;2023-11-18T06:39:08;98216.75;;;17.99;100.00
8697;BME280;4385;48.848;8.924;2023-11-18T06:41:34;98225.22;;;18.03;100.00
8697;BME280;4385;48.848;8.924;2023-11-18T06:44:00;98230.28;;;18.06;100.00
8697;BME280;4385;48.848;8.924;2023-11-18T06:46:29;98224.28;;;18.10;100.00
8697;BME280;4385;48.848;8.924;2023-11-18T06:48:58;98207.28;;;18.11;100.00
8697;BME280;4385;48.848;8.924;2023-11-18T06:51:25;98201.34;;;18.12;100.00
8697;BME280;4385;48.848;8.924;2023-11-18T06:53:55;98203.88;;;18.15;100.00
8697;BME280;4385;48.848;8.924;2023-11-18T06:56:21;98206.41;;;18.16;100.00
8697;BME280;4385;48.848;8.924;2023-11-18T06:58:47;98197.06;;;18.17;100.00
8697;BME280;4385;48.848;8.924;2023-11-18T07:01:13;98201.28;;;18.18;100.00
8697;BME280;4385;48.848;8.924;2023-11-18T07:03:43;98192.84;;;18.16;100.00
8697;BME280;4385;48.848;8.924;2023-11-18T07:06:09;98197.06;;;18.17;100.00
8697;BME280;4385;48.848;8.924;2023-11-18T07:08:35;98204.72;;;18.15;100.00
8697;BME280;4385;48.848;8.924;2023-11-18T07:11:01;98208.97;;;18.15;100.00
8697;BME280;4385;48.848;8.924;2023-11-18T07:13:29;98210.69;;;18.16;100.00
8697;BME280;4385;48.848;8.924;2023-11-18T07:15:55;98209.84;;;18.14;100.00
8697;BME280;4385;48.848;8.924;2023-11-18T07:18:23;98219.19;;;18.15;100.00
8697;BME280;4385;48.848;8.924;2023-11-18T07:20:48;98231.09;;;18.16;100.00
8697;BME280;4385;48.848;8.924;2023-11-18T07:23:16;98225.13;;;18.17;100.00
8697;BME280;4385;48.848;8.924;2023-11-18T07:25:43;98230.22;;;18.18;100.00
8697;BME280;4385;48.848;8.924;2023-11-18T07:28:09;98225.97;;;18.19;100.00
8697;BME280;4385;48.848;8.924;2023-11-18T07:30:34;98217.44;;;18.20;100.00
8697;BME280;4385;48.848;8.924;2023-11-18T07:33:00;98218.31;;;18.21;100.00
8697;BME280;4385;48.848;8.924;2023-11-18T07:35:26;98225.06;;;18.23;100.00
8697;BME280;4385;48.848;8.924;2023-11-18T07:37:52;98219.09;;;18.24;100.00
8697;BME280;4385;48.848;8.924;2023-11-18T07:40:18;98214.84;;;18.25;100.00
8697;BME280;4385;48.848;8.924;2023-11-18T07:42:56;98214.84;;;18.26;100.00
8697;BME280;4385;48.848;8.924;2023-11-18T07:45:21;98214.81;;;18.28;100.00
8697;BME280;4385;48.848;8.924;2023-11-18T07:47:51;98215.69;;;18.28;100.00
8697;BME280;4385;48.848;8.924;2023-11-18T07:50:18;98199.47;;;18.31;100.00
8697;BME280;4385;48.848;8.924;2023-11-18T07:52:45;98197.78;;;18.33;100.00
8697;BME280;4385;48.848;8.924;2023-11-18T07:55:11;98193.47;;;18.35;100.00
8697;BME280;4385;48.848;8.924;2023-11-18T07:57:38;98199.44;;;18.36;100.00
8697;BME280;4385;48.848;8.924;2023-11-18T08:00:03;98203.66;;;18.37;100.00
8697;BME280;4385;48.848;8.924;2023-11-18T08:02:37;98200.28;;;18.38;100.00
8697;BME280;4385;48.848;8.924;2023-11-18T08:05:03;98213.84;;;18.40;100.00
8697;BME280;4385;48.848;8.924;2023-11-18T08:07:33;98217.22;;;18.42;100.00
8697;BME280;4385;48.848;8.924;2023-11-18T08:09:59;98210.44;;;18.41;100.00
8697;BME280;4385;48.848;8.924;2023-11-18T08:12:24;98212.13;;;18.42;100.00
8697;BME280;4385;48.848;8.924;2023-11-18T08:14:50;98211.25;;;18.43;100.00
8697;BME280;4385;48.848;8.924;2023-11-18T08:17:15;98227.41;;;18.45;100.00
8697;BME280;4385;48.848;8.924;2023-11-18T08:19:40;98234.19;;;18.46;100.00
8697;BME280;4385;48.848;8.924;2023-11-18T08:22:06;98229.94;;;18.47;100.00
8697;BME280;4385;48.848;8.924;2023-11-18T08:24:31;98235.03;;;18.48;100.00
8697;BME280;4385;48.848;8.924;2023-11-18T08:26:58;98218.88;;;18.48;100.00
8697;BME280;4385;48.848;8.924;2023-11-18T08:29:24;98218.84;;;18.49;100.00
8697;BME280;4385;48.848;8.924;2023-11-18T08:31:53;98211.22;;;18.48;100.00
8697;BME280;4385;48.848;8.924;2023-11-18T08:34:18;98221.41;;;18.49;100.00
8697;BME280;4385;48.848;8.924;2023-11-18T08:36:44;98214.59;;;18.50;100.00
8697;BME280;4385;48.848;8.924;2023-11-18T08:39:09;98210.34;;;18.50;100.00
8697;BME280;4385;48.848;8.924;2023-11-18T08:41:35;98197.59;;;18.49;100.00
8697;BME280;4385;48.848;8.924;2023-11-18T08:44:01;98207.00;;;18.45;100.00
8697;BME280;4385;48.848;8.924;2023-11-18T08:46:27;98221.47;;;18.43;100.00
8697;BME280;4385;48.848;8.924;2023-11-18T08:48:52;98223.16;;;18.44;100.00
8697;BME280;4385;48.848;8.924;2023-11-18T08:51:19;98213.78;;;18.46;100.00
8697;BME280;4385;48.848;8.924;2023-11-18T08:53:45;98212.91;;;18.49;100.00
8697;BME280;4385;48.848;8.924;2023-11-18T08:56:11;98203.53;;;18.49;100.00
8697;BME280;4385;48.848;8.924;2023-11-18T08:58:41;98195.03;;;18.50;100.00
8697;BME280;4385;48.848;8.924;2023-11-18T09:01:06;98196.72;;;18.51;100.00
8697;BME280;4385;48.848;8.924;2023-11-18T09:03:38;98195.81;;;18.54;100.00
8697;BME280;4385;48.848;8.924;2023-11-18T09:06:11;98193.25;;;18.55;100.00
8697;BME280;4385;48.848;8.924;2023-11-18T09:08:44;98196.66;;;18.56;100.00
8697;BME280;4385;48.848;8.924;2023-11-18T09:11:12;98202.63;;;18.56;100.00
8697;BME280;4385;48.848;8.924;2023-11-18T09:13:41;98198.34;;;18.55;100.00
8697;BME280;4385;48.848;8.924;2023-11-18T09:16:08;98200.91;;;18.57;100.00
8697;BME280;4385;48.848;8.924;2023-11-18T09:18:37;98195.78;;;18.59;100.00
8697;BME280;4385;48.848;8.924;2023-11-18T09:21:05;98199.16;;;18.61;100.00
8697;BME280;4385;48.848;8.924;2023-11-18T09:23:33;98200.81;;;18.63;100.00
8697;BME280;4385;48.848;8.924;2023-11-18T09:26:03;98198.25;;;18.65;100.00
8697;BME280;4385;48.848;8.924;2023-11-18T09:28:33;98190.63;;;18.63;100.00
8697;BME280;4385;48.848;8.924;2023-11-18T09:31:00;98200.00;;;18.63;100.00
8697;BME280;4385;48.848;8.924;2023-11-18T09:33:29;98202.56;;;18.63;100.00
8697;BME280;4385;48.848;8.924;2023-11-18T09:35:59;98200.00;;;18.63;100.00
8697;BME280;4385;48.848;8.924;2023-11-18T09:38:32;98206.81;;;18.62;100.00
8697;BME280;4385;48.848;8.924;2023-11-18T09:40:58;98205.09;;;18.63;100.00
8697;BME280;4385;48.848;8.924;2023-11-18T09:43:31;98200.84;;;18.62;100.00
8697;BME280;4385;48.848;8.924;2023-11-18T09:46:11;98202.56;;;18.63;100.00
8697;BME280;4385;48.848;8.924;2023-11-18T09:48:42;98184.72;;;18.60;100.00
8697;BME280;4385;48.848;8.924;2023-11-18T09:51:08;98181.28;;;18.61;100.00
8697;BME280;4385;48.848;8.924;2023-11-18T09:53:37;98180.41;;;18.63;100.00
8697;BME280;4385;48.848;8.924;2023-11-18T09:56:07;98182.97;;;18.62;100.00
8697;BME280;4385;48.848;8.924;2023-11-18T09:58:40;98189.78;;;18.63;100.00
8697;BME280;4385;48.848;8.924;2023-11-18T10:01:09;98195.75;;;18.62;100.00
8697;BME280;4385;48.848;8.924;2023-11-18T10:03:39;98191.50;;;18.61;100.00
8697;BME280;4385;48.848;8.924;2023-11-18T10:06:08;98186.44;;;18.57;100.00
8697;BME280;4385;48.848;8.924;2023-11-18T10:08:35;98183.91;;;18.56;100.00
8697;BME280;4385;48.848;8.924;2023-11-18T10:11:04;98184.75;;;18.56;100.00
8697;BME280;4385;48.848;8.924;2023-11-18T10:13:34;98189.84;;;18.56;100.00
8697;BME280;4385;48.848;8.924;2023-11-18T10:16:01;98183.88;;;18.57;100.00
8697;BME280;4385;48.848;8.924;2023-11-18T10:18:27;98191.53;;;18.59;100.00
8697;BME280;4385;48.848;8.924;2023-11-18T10:20:53;98182.16;;;18.61;100.00
8697;BME280;4385;48.848;8.924;2023-11-18T10:23:21;98186.31;;;18.67;100.00
8697;BME280;4385;48.848;8.924;2023-11-18T10:25:57;98184.63;;;18.69;100.00
8697;BME280;4385;48.848;8.924;2023-11-18T10:28:31;98194.78;;;18.72;100.00
8697;BME280;4385;48.848;8.924;2023-11-18T10:31:02;98199.00;;;18.75;100.00
8697;BME280;4385;48.848;8.924;2023-11-18T10:33:32;98188.72;;;18.79;100.00
8697;BME280;4385;48.848;8.924;2023-11-18T10:35:59;98192.94;;;18.84;100.00
8697;BME280;4385;48.848;8.924;2023-11-18T10:38:32;98194.59;;;18.88;100.00
8697;BME280;4385;48.848;8.924;2023-11-18T10:41:01;98197.97;;;18.90;100.00
8697;BME280;4385;48.848;8.924;2023-11-18T10:43:27;98189.41;;;18.94;100.00
8697;BME280;4385;48.848;8.924;2023-11-18T10:46:09;98175.75;;;18.97;100.00
8697;BME280;4385;48.848;8.924;2023-11-18T10:48:43;98180.84;;;18.98;100.00
8697;BME280;4385;48.848;8.924;2023-11-18T10:51:09;98173.16;;;19.00;100.00
8697;BME280;4385;48.848;8.924;2023-11-18T10:53:36;98177.38;;;19.02;100.00
8697;BME280;4385;48.848;8.924;2023-11-18T10:56:04;98184.13;;;19.06;100.00
8697;BME280;4385;48.848;8.924;2023-11-18T10:58:36;98171.34;;;19.08;100.00
8697;BME280;4385;48.848;8.924;2023-11-18T11:01:06;98161.97;;;19.09;100.00
8697;BME280;4385;48.848;8.924;2023-11-18T11:03:52;98155.16;;;19.11;100.00
8697;BME280;4385;48.848;8.924;2023-11-18T11:06:19;98166.19;;;19.13;100.00
8697;BME280;4385;48.848;8.924;2023-11-18T11:08:44;98161.91;;;19.15;100.00
8697;BME280;4385;48.848;8.924;2023-11-18T11:11:11;98166.97;;;19.18;100.00
8697;BME280;4385;48.848;8.924;2023-11-18T11:13:43;98163.56;;;19.19;100.00
8697;BME280;4385;48.848;8.924;2023-11-18T11:16:10;98172.03;;;19.21;100.00
8697;BME280;4385;48.848;8.924;2023-11-18T11:18:40;98172.84;;;19.25;100.00
8697;BME280;4385;48.848;8.924;2023-11-18T11:21:15;98168.56;;;19.27;100.00
8697;BME280;4385;48.848;8.924;2023-11-18T11:23:57;98170.22;;;19.29;100.00
8697;BME280;4385;48.848;8.924;2023-11-18T11:31:59;98147.13;;;19.36;100.00
8697;BME280;4385;48.848;8.924;2023-11-18T11:34:29;98136.03;;;19.37;100.00
8697;BME280;4385;48.848;8.924;2023-11-18T11:36:58;98141.97;;;19.39;100.00
8697;BME280;4385;48.848;8.924;2023-11-18T11:39:24;98130.88;;;19.40;100.00
8697;BME280;4385;48.848;8.924;2023-11-18T11:41:56;98134.25;;;19.42;100.00
8697;BME280;4385;48.848;8.924;2023-11-18T11:44:22;98121.44;;;19.43;100.00
8697;BME280;4385;48.848;8.924;2023-11-18T11:46:59;98123.94;;;19.47;100.00
8697;BME280;4385;48.848;8.924;2023-11-18T11:49:27;98112.84;;;19.48;100.00
8697;BME280;4385;48.848;8.924;2023-11-18T11:52:03;98105.19;;;19.48;100.00
8697;BME280;4385;48.848;8.924;2023-11-18T11:54:35;98105.19;;;19.48;100.00
8697;BME280;4385;48.848;8.924;2023-11-18T11:57:03;98102.59;;;19.49;100.00
8697;BME280;4385;48.848;8.924;2023-11-18T11:59:57;98094.94;;;19.49;100.00
8697;BME280;4385;48.848;8.924;2023-11-18T12:02:24;98090.66;;;19.50;100.00
8697;BME280;4385;48.848;8.924;2023-11-18T12:04:53;98097.47;;;19.49;100.00
8697;BME280;4385;48.848;8.924;2023-11-18T12:07:20;98094.09;;;19.49;100.00
8697;BME280;4385;48.848;8.924;2023-11-18T12:09:51;98094.94;;;19.49;100.00
8697;BME280;4385;48.848;8.924;2023-11-18T12:12:24;98086.47;;;19.47;100.00
8697;BME280;4385;48.848;8.924;2023-11-18T12:14:57;98080.53;;;19.45;100.00
8697;BME280;4385;48.848;8.924;2023-11-18T12:17:25;98071.19;;;19.44;100.00
8697;BME280;4385;48.848;8.924;2023-11-18T12:19:57;98063.50;;;19.44;100.00
8697;BME280;4385;48.848;8.924;2023-11-18T12:22:24;98057.56;;;19.42;100.00
8697;BME280;4385;48.848;8.924;2023-11-18T12:35:22;98051.69;;;19.37;100.00
8697;BME280;4385;48.848;8.924;2023-11-18T12:38:19;98045.75;;;19.36;100.00
8697;BME280;4385;48.848;8.924;2023-11-18T12:40:57;98046.59;;;19.35;100.00
8697;BME280;4385;48.848;8.924;2023-11-18T12:48:57;98038.97;;;19.34;100.00
8697;BME280;4385;48.848;8.924;2023-11-18T12:51:25;98042.41;;;19.33;100.00
8697;BME280;4385;48.848;8.924;2023-11-18T12:53:50;98028.75;;;19.34;100.00
8697;BME280;4385;48.848;8.924;2023-11-18T12:56:19;98028.75;;;19.34;100.00
8697;BME280;4385;48.848;8.924;2023-11-18T12:58:47;98023.69;;;19.30;100.00
8697;BME280;4385;48.848;8.924;2023-11-18T13:01:13;98040.72;;;19.31;100.00
8697;BME280;4385;48.848;8.924;2023-11-18T13:03:42;98032.22;;;19.29;100.00
8697;BME280;4385;48.848;8.924;2023-11-18T13:06:09;98032.25;;;19.28;100.00
8697;BME280;4385;48.848;8.924;2023-11-18T13:08:37;98033.97;;;19.27;100.00
8697;BME280;4385;48.848;8.924;2023-11-18T13:11:03;98036.53;;;19.26;100.00
8697;BME280;4385;48.848;8.924;2023-11-18T13:13:33;98023.78;;;19.24;100.00
8697;BME280;4385;48.848;8.924;2023-11-18T13:15:59;98015.31;;;19.22;100.00
8697;BME280;4385;48.848;8.924;2023-11-18T13:18:24;98008.50;;;19.21;100.00
8697;BME280;4385;48.848;8.924;2023-11-18T13:20:57;98000.06;;;19.19;100.00
8697;BME280;4385;48.848;8.924;2023-11-18T13:23:26;97988.94;;;19.20;100.00
8697;BME280;4385;48.848;8.924;2023-11-18T13:25:55;97996.66;;;19.18;100.00
8697;BME280;4385;48.848;8.924;2023-11-18T13:28:24;98002.63;;;19.17;100.00
8697;BME280;4385;48.848;8.924;2023-11-18T13:30:50;98002.69;;;19.14;100.00
8697;BME280;4385;48.848;8.924;2023-11-18T13:33:16;97994.19;;;19.12;100.00
8697;BME280;4385;48.848;8.924;2023-11-18T13:35:42;97988.28;;;19.09;100.00